createdAt,value
2023-03-19T00:04:05.285Z,3.86
2023-03-19T00:09:10.454Z,4.03
2023-03-19T00:14:17.254Z,4.21
2023-03-19T00:19:21.999Z,4.41
2023-03-19T00:24:27.515Z,4.60
2023-03-19T00:29:33.205Z,4.83
2023-03-19T00:34:38.805Z,5.04
2023-03-19T00:39:44.792Z,5.26
2023-03-19T00:44:52.168Z,5.52
2023-03-19T00:49:57.702Z,5.77
2023-03-19T00:55:03.359Z,6.01
2023-03-19T01:00:10.183Z,6.29
2023-03-19T01:05:17.145Z,6.60
2023-03-19T01:10:24.593Z,6.90
2023-03-19T01:15:29.916Z,7.20
2023-03-19T01:20:35.935Z,7.44
2023-03-19T01:25:42.239Z,7.65
2023-03-19T01:30:49.704Z,7.83
2023-03-19T01:36:16.677Z,8.09
2023-03-19T01:41:43.134Z,8.30
2023-03-19T01:47:34.537Z,8.55
2023-03-19T01:53:01.095Z,8.77
2023-03-19T01:58:20.590Z,9.04
2023-03-19T02:03:44.383Z,9.29
2023-03-19T02:09:01.092Z,9.56
2023-03-19T02:14:06.531Z,9.90
2023-03-19T02:19:20.091Z,10.08
2023-03-19T02:24:37.701Z,10.30
2023-03-19T02:29:49.416Z,10.50
2023-03-19T02:34:55.009Z,10.70
2023-03-19T02:40:32.603Z,10.97
2023-03-19T02:45:38.037Z,11.18
2023-03-19T02:50:43.462Z,11.37
2023-03-19T02:55:48.950Z,11.54
2023-03-19T03:00:55.081Z,11.70
2023-03-19T03:06:01.790Z,11.87
2023-03-19T03:11:07.779Z,12.09
2023-03-19T03:16:14.030Z,12.30
2023-03-19T03:21:22.659Z,12.48
2023-03-19T03:26:28.467Z,12.74
2023-03-19T03:31:34.822Z,12.94
2023-03-19T03:36:40.306Z,13.12
2023-03-19T03:41:46.586Z,13.34
2023-03-19T03:46:53.166Z,13.54
2023-03-19T03:51:58.622Z,13.72
2023-03-19T03:57:05.040Z,13.87
2023-03-19T04:02:10.727Z,14.09
2023-03-19T04:07:16.207Z,14.27
2023-03-19T04:12:29.755Z,14.39
2023-03-19T04:17:36.177Z,14.53
2023-03-19T04:22:41.518Z,14.72
2023-03-19T04:27:48.296Z,14.82
2023-03-19T04:32:53.579Z,14.90
2023-03-19T04:37:58.995Z,15.06
2023-03-19T04:43:04.421Z,15.14
2023-03-19T04:48:11.078Z,15.35
2023-03-19T04:53:18.777Z,15.48
2023-03-19T04:58:25.362Z,15.59
2023-03-19T05:03:37.485Z,15.76
2023-03-19T05:08:42.908Z,15.99
2023-03-19T05:13:48.381Z,16.07
2023-03-19T05:18:54.396Z,16.20
2023-03-19T05:24:00.164Z,16.34
2023-03-19T05:29:12.134Z,16.50
2023-03-19T05:34:31.209Z,16.67
2023-03-19T05:39:38.208Z,16.79
2023-03-19T05:44:46.562Z,16.89
2023-03-19T05:50:09.249Z,17.02
2023-03-19T05:55:14.841Z,17.05
2023-03-19T06:00:29.129Z,17.00
2023-03-19T06:05:34.665Z,17.03
2023-03-19T06:10:58.211Z,17.11
2023-03-19T06:16:04.800Z,17.16
2023-03-19T06:21:18.322Z,17.20
2023-03-19T06:26:25.118Z,17.06
2023-03-19T06:31:33.062Z,17.29
2023-03-19T06:36:43.359Z,17.34
2023-03-19T06:41:51.844Z,17.24
2023-03-19T06:47:02.117Z,17.04
2023-03-19T06:52:08.967Z,17.13
2023-03-19T06:57:14.102Z,17.34
2023-03-19T07:02:19.813Z,17.48
2023-03-19T07:07:25.575Z,17.34
2023-03-19T07:12:30.728Z,17.24
2023-03-19T07:17:36.017Z,17.18
2023-03-19T07:22:41.197Z,17.20
2023-03-19T07:27:47.668Z,17.16
2023-03-19T07:32:53.836Z,17.01
2023-03-19T07:37:59.553Z,17.07
2023-03-19T07:43:05.424Z,17.10
2023-03-19T07:48:10.236Z,17.10
2023-03-19T07:53:15.585Z,17.08
2023-03-19T07:58:21.790Z,17.06
2023-03-19T08:03:27.414Z,16.94
2023-03-19T08:08:33.829Z,16.86
2023-03-19T08:13:39.441Z,16.79
2023-03-19T08:18:44.687Z,16.70
2023-03-19T08:23:49.942Z,16.64
2023-03-19T08:28:55.258Z,16.59
2023-03-19T08:34:05.385Z,16.50
2023-03-19T08:39:10.688Z,16.41
2023-03-19T08:44:16.108Z,16.27
2023-03-19T08:49:21.389Z,16.13
2023-03-19T08:54:27.618Z,15.95
2023-03-19T08:59:34.289Z,15.73
2023-03-19T09:04:42.475Z,15.53
2023-03-19T09:09:48.223Z,15.38
2023-03-19T09:14:53.529Z,15.23
2023-03-19T09:19:59.144Z,15.12
2023-03-19T09:25:04.916Z,15.01
2023-03-19T09:30:14.121Z,14.88
2023-03-19T09:35:19.755Z,14.74
2023-03-19T09:40:35.546Z,14.69
2023-03-19T09:45:41.095Z,14.62
2023-03-19T09:50:47.567Z,14.53
2023-03-19T09:55:55.466Z,14.42
2023-03-19T10:01:02.294Z,14.20
2023-03-19T10:06:28.907Z,14.00
2023-03-19T10:11:46.212Z,13.82
2023-03-19T10:16:55.257Z,13.64
2023-03-19T10:22:10.992Z,13.48
2023-03-19T10:27:24.935Z,13.33
2023-03-19T10:32:45.070Z,13.15
2023-03-19T10:37:56.478Z,13.04
2023-03-19T10:43:17.178Z,12.96
2023-03-19T10:48:29.817Z,12.91
2023-03-19T10:53:39.126Z,12.87
2023-03-19T10:59:02.658Z,12.81
2023-03-19T11:04:23.202Z,12.77
2023-03-19T11:09:51.472Z,12.76
2023-03-19T11:15:00.944Z,12.74
2023-03-19T11:20:36.531Z,12.80
2023-03-19T11:25:42.380Z,12.81
2023-03-19T11:31:06.735Z,12.80
2023-03-19T11:36:22.634Z,12.78
2023-03-19T11:41:57.508Z,12.72
2023-03-19T11:47:36.501Z,12.68
2023-03-19T11:53:07.560Z,12.67
2023-03-19T11:58:46.254Z,12.71
2023-03-19T12:04:29.289Z,12.65
2023-03-19T12:10:00.718Z,12.50
2023-03-19T12:15:12.486Z,12.34
2023-03-19T12:20:22.816Z,12.23
2023-03-19T12:25:34.188Z,12.11
2023-03-19T12:30:52.708Z,11.90
2023-03-19T12:36:01.149Z,11.70
2023-03-19T12:41:12.609Z,11.62
2023-03-19T12:46:26.679Z,11.62
2023-03-19T12:51:40.363Z,11.71
2023-03-19T12:57:02.880Z,11.84
2023-03-19T13:02:11.838Z,11.90
2023-03-19T13:07:53.434Z,11.92
2023-03-19T13:13:00.761Z,11.90
2023-03-19T13:18:06.638Z,11.91
2023-03-19T13:23:16.693Z,11.95
2023-03-19T13:29:05.375Z,11.88
2023-03-19T13:34:27.658Z,11.55
2023-03-19T13:39:37.105Z,11.25
2023-03-19T13:44:44.685Z,11.16
2023-03-19T13:50:17.906Z,11.19
2023-03-19T13:55:47.007Z,11.20
2023-03-19T14:01:00.590Z,11.15
2023-03-19T14:06:08.477Z,11.13
2023-03-19T14:11:31.358Z,11.07
2023-03-19T14:16:45.134Z,11.01
2023-03-19T14:22:10.518Z,10.95
2023-03-19T14:27:35.668Z,10.80
2023-03-19T14:32:45.491Z,10.48
2023-03-19T14:37:54.998Z,10.19
2023-03-19T14:43:13.123Z,10.11
2023-03-19T14:49:00.070Z,10.17
2023-03-19T14:54:36.244Z,10.23
2023-03-19T14:59:43.261Z,10.27
2023-03-19T15:04:51.156Z,10.32
2023-03-19T15:09:58.376Z,10.33
2023-03-19T15:15:26.104Z,10.31
2023-03-19T15:20:38.977Z,10.35
2023-03-19T15:25:53.187Z,10.35
2023-03-19T15:31:20.263Z,10.16
2023-03-19T15:36:35.058Z,10.06
2023-03-19T15:41:48.010Z,9.99
2023-03-19T15:46:55.586Z,10.11
2023-03-19T15:52:08.427Z,10.21
2023-03-19T15:57:18.476Z,10.29
2023-03-19T16:02:37.422Z,10.36
2023-03-19T16:07:47.726Z,10.41
2023-03-19T16:12:53.679Z,10.45
2023-03-19T16:18:36.195Z,10.50
2023-03-19T16:24:06.206Z,10.53
2023-03-19T16:29:43.665Z,10.41
2023-03-19T16:34:58.027Z,10.21
2023-03-19T16:40:25.712Z,10.07
2023-03-19T16:45:37.024Z,10.15
2023-03-19T16:50:45.828Z,10.25
2023-03-19T16:55:53.115Z,10.35
2023-03-19T17:01:01.573Z,10.38
2023-03-19T17:06:12.267Z,10.44
2023-03-19T17:11:32.821Z,10.46
2023-03-19T17:16:38.702Z,10.42
2023-03-19T17:21:45.640Z,10.42
2023-03-19T17:26:51.517Z,10.33
2023-03-19T17:32:01.739Z,10.09
2023-03-19T17:37:16.327Z,9.93
2023-03-19T17:42:28.345Z,9.89
2023-03-19T17:47:36.089Z,9.95
2023-03-19T17:52:45.264Z,10.02
2023-03-19T17:57:53.420Z,10.09
2023-03-19T18:03:00.613Z,10.11
2023-03-19T18:08:06.358Z,10.12
2023-03-19T18:13:12.701Z,10.13
2023-03-19T18:18:23.479Z,10.13
2023-03-19T18:23:29.424Z,10.15
2023-03-19T18:28:35.472Z,10.04
2023-03-19T18:33:42.850Z,9.89
2023-03-19T18:38:48.824Z,9.79
2023-03-19T18:43:56.687Z,9.75
2023-03-19T18:49:03.618Z,9.74
2023-03-19T18:54:09.147Z,9.74
2023-03-19T18:59:28.531Z,9.75
2023-03-19T19:04:35.199Z,9.78
2023-03-19T19:09:41.002Z,9.81
2023-03-19T19:14:47.486Z,9.79
2023-03-19T19:19:53.317Z,9.82
2023-03-19T19:24:59.055Z,9.85
2023-03-19T19:30:04.061Z,9.76
2023-03-19T19:35:22.891Z,9.64
2023-03-19T19:40:33.726Z,9.51
2023-03-19T19:45:43.103Z,9.51
2023-03-19T19:50:50.279Z,9.54
2023-03-19T19:55:56.209Z,9.57
2023-03-19T20:01:04.477Z,9.58
2023-03-19T20:06:10.314Z,9.61
2023-03-19T20:11:22.591Z,9.63
2023-03-19T20:16:28.565Z,9.63
2023-03-19T20:21:34.085Z,9.63
2023-03-19T20:26:39.632Z,9.63
2023-03-19T20:31:48.240Z,9.54
2023-03-19T20:36:54.283Z,9.38
2023-03-19T20:41:59.837Z,9.29
2023-03-19T20:47:05.268Z,9.33
2023-03-19T20:52:13.471Z,9.39
2023-03-19T20:57:24.237Z,9.41
2023-03-19T21:02:29.775Z,9.42
2023-03-19T21:07:36.430Z,9.39
2023-03-19T21:12:41.898Z,9.37
2023-03-19T21:17:50.057Z,9.39
2023-03-19T21:23:07.410Z,9.41
2023-03-19T21:28:53.371Z,9.43
2023-03-19T21:34:00.313Z,9.29
2023-03-19T21:39:05.667Z,9.11
2023-03-19T21:44:22.311Z,9.00
2023-03-19T21:49:28.031Z,9.08
2023-03-19T21:54:33.491Z,9.17
2023-03-19T21:59:41.099Z,9.22
2023-03-19T22:04:47.841Z,9.31
2023-03-19T22:09:54.304Z,9.29
2023-03-19T22:15:01.525Z,9.26
2023-03-19T22:20:07.298Z,9.25
2023-03-19T22:25:17.840Z,9.21
2023-03-19T22:30:44.224Z,9.16
2023-03-19T22:35:53.388Z,8.99
2023-03-19T22:40:59.113Z,8.81
2023-03-19T22:46:11.489Z,8.73
2023-03-19T22:51:22.948Z,8.80
2023-03-19T22:56:28.412Z,8.91
2023-03-19T23:01:52.373Z,9.04
2023-03-19T23:06:59.490Z,9.09
2023-03-19T23:12:05.988Z,9.19
2023-03-19T23:17:18.670Z,9.31
2023-03-19T23:22:24.271Z,9.39
2023-03-19T23:27:30.728Z,9.46
2023-03-19T23:32:37.401Z,9.43
2023-03-19T23:37:42.294Z,9.35
2023-03-19T23:42:51.785Z,9.22
2023-03-19T23:48:05.783Z,9.20
2023-03-19T23:53:22.024Z,9.32
2023-03-19T23:58:41.288Z,9.43
